createdAt,value
2023-03-08T00:01:24.683Z,99662.38
2023-03-08T00:03:54.906Z,99661.25
2023-03-08T00:06:23.512Z,99663.56
2023-03-08T00:08:56.395Z,99649.72
2023-03-08T00:11:24.752Z,99654.72
2023-03-08T00:13:53.244Z,99654.72
2023-03-08T00:16:21.659Z,99651.66
2023-03-08T00:18:50.101Z,99646.25
2023-03-08T00:21:20.098Z,99659.25
2023-03-08T00:23:48.854Z,99658.00
2023-03-08T00:26:18.582Z,99654.09
2023-03-08T00:28:48.082Z,99650.00
2023-03-08T00:31:16.485Z,99654.63
2023-03-08T00:33:44.805Z,99648.34
2023-03-08T00:36:16.690Z,99647.34
2023-03-08T00:38:45.569Z,99645.38
2023-03-08T00:41:14.172Z,99645.84
2023-03-08T00:43:44.135Z,99649.50
2023-03-08T00:46:13.039Z,99650.00
2023-03-08T00:48:41.541Z,99645.13
2023-03-08T00:51:13.605Z,99647.38
2023-03-08T00:53:42.051Z,99642.75
2023-03-08T00:56:10.406Z,99638.13
2023-03-08T00:58:39.905Z,99638.31
2023-03-08T01:01:10.781Z,99642.88
2023-03-08T01:03:39.107Z,99645.31
2023-03-08T01:06:09.548Z,99635.19
2023-03-08T01:08:38.488Z,99637.41
2023-03-08T01:11:07.325Z,99634.66
2023-03-08T01:13:37.117Z,99633.88
2023-03-08T01:16:05.558Z,99630.06
2023-03-08T01:18:35.292Z,99628.38
2023-03-08T01:21:06.220Z,99641.16
2023-03-08T01:23:34.636Z,99634.78
2023-03-08T01:26:04.597Z,99628.41
2023-03-08T01:28:33.372Z,99627.34
2023-03-08T01:31:05.723Z,99628.53
2023-03-08T01:33:36.075Z,99633.47
2023-03-08T01:36:05.696Z,99622.25
2023-03-08T01:38:34.110Z,99624.63
2023-03-08T01:41:04.126Z,99630.50
2023-03-08T01:43:34.469Z,99631.06
2023-03-08T01:46:12.159Z,99624.53
2023-03-08T01:48:46.068Z,99636.09
2023-03-08T01:51:17.613Z,99637.53
2023-03-08T01:53:46.192Z,99647.97
2023-03-08T01:56:17.000Z,99639.56
2023-03-08T01:58:49.994Z,99638.00
2023-03-08T02:01:20.093Z,99636.97
2023-03-08T02:03:50.277Z,99641.47
2023-03-08T02:06:20.609Z,99644.66
2023-03-08T02:08:49.169Z,99650.25
2023-03-08T02:11:20.253Z,99637.19
2023-03-08T02:13:49.581Z,99645.44
2023-03-08T02:16:19.341Z,99643.56
2023-03-08T02:18:53.457Z,99650.53
2023-03-08T02:21:21.750Z,99642.28
2023-03-08T02:23:51.599Z,99643.22
2023-03-08T02:26:20.417Z,99645.31
2023-03-08T02:28:49.377Z,99651.06
2023-03-08T02:31:18.366Z,99639.63
2023-03-08T02:33:46.774Z,99633.31
2023-03-08T02:36:15.104Z,99636.19
2023-03-08T02:38:43.400Z,99643.50
2023-03-08T02:41:13.164Z,99640.84
2023-03-08T02:43:41.578Z,99635.31
2023-03-08T02:46:12.804Z,99646.75
2023-03-08T02:48:41.130Z,99637.56
2023-03-08T02:51:09.437Z,99642.22
2023-03-08T02:53:37.748Z,99637.31
2023-03-08T02:56:06.649Z,99637.72
2023-03-08T02:58:36.447Z,99627.13
2023-03-08T03:01:04.788Z,99637.81
2023-03-08T03:03:33.183Z,99629.66
2023-03-08T03:06:01.525Z,99630.63
2023-03-08T03:08:31.603Z,99634.72
2023-03-08T03:10:59.930Z,99628.88
2023-03-08T03:13:28.289Z,99635.69
2023-03-08T03:15:58.294Z,99638.53
2023-03-08T03:18:26.641Z,99648.50
2023-03-08T03:20:54.951Z,99647.53
2023-03-08T03:23:23.262Z,99654.25
2023-03-08T03:25:51.547Z,99665.50
2023-03-08T03:28:19.868Z,99655.91
2023-03-08T03:30:48.213Z,99655.16
2023-03-08T03:33:17.983Z,99657.66
2023-03-08T03:35:46.295Z,99666.88
2023-03-08T03:38:14.669Z,99670.66
2023-03-08T03:40:42.939Z,99670.47
2023-03-08T03:43:11.394Z,99665.97
2023-03-08T03:45:39.696Z,99663.78
2023-03-08T03:48:08.149Z,99666.34
2023-03-08T03:50:37.860Z,99659.09
2023-03-08T03:53:06.192Z,99667.03
2023-03-08T03:55:34.480Z,99668.25
2023-03-08T03:58:02.788Z,99668.25
2023-03-08T04:00:31.437Z,99667.91
2023-03-08T04:02:59.727Z,99668.44
2023-03-08T04:05:28.097Z,99668.28
2023-03-08T04:07:58.012Z,99666.25
2023-03-08T04:10:26.626Z,99654.09
2023-03-08T04:12:55.150Z,99653.34
2023-03-08T04:15:23.418Z,99653.06
2023-03-08T04:17:52.932Z,99649.72
2023-03-08T04:20:21.419Z,99645.75
2023-03-08T04:22:49.773Z,99651.28
2023-03-08T04:25:19.592Z,99651.38
2023-03-08T04:27:47.971Z,99646.75
2023-03-08T04:30:16.498Z,99648.00
2023-03-08T04:32:44.792Z,99648.13
2023-03-08T04:35:13.145Z,99634.22
2023-03-08T04:37:41.399Z,99640.91
2023-03-08T04:40:11.163Z,99633.41
2023-03-08T04:42:41.204Z,99645.66
2023-03-08T04:45:10.585Z,99654.03
2023-03-08T04:47:38.864Z,99643.09
2023-03-08T04:50:08.287Z,99638.53
2023-03-08T04:52:36.629Z,99646.63
2023-03-08T04:55:05.307Z,99657.09
2023-03-08T04:57:35.246Z,99660.06
2023-03-08T05:00:06.021Z,99654.50
2023-03-08T05:02:34.526Z,99650.56
2023-03-08T05:05:04.482Z,99648.88
2023-03-08T05:07:32.926Z,99650.34
2023-03-08T05:10:01.234Z,99651.38
2023-03-08T05:12:29.551Z,99658.94
2023-03-08T05:14:57.925Z,99658.09
2023-03-08T05:17:27.666Z,99658.97
2023-03-08T05:19:56.004Z,99663.34
2023-03-08T05:22:24.333Z,99668.56
2023-03-08T05:24:52.838Z,99667.25
2023-03-08T05:27:21.142Z,99677.53
2023-03-08T05:29:49.458Z,99677.41
2023-03-08T05:32:17.759Z,99675.50
2023-03-08T05:34:47.577Z,99676.19
2023-03-08T05:37:15.873Z,99693.91
2023-03-08T05:39:44.199Z,99698.06
2023-03-08T05:42:13.306Z,99680.16
2023-03-08T05:44:41.591Z,99682.19
2023-03-08T05:47:09.933Z,99680.69
2023-03-08T05:49:38.233Z,99684.88
2023-03-08T05:52:08.317Z,99691.47
2023-03-08T05:54:36.648Z,99687.50
2023-03-08T05:57:05.261Z,99682.28
2023-03-08T05:59:33.752Z,99683.34
2023-03-08T06:02:02.283Z,99689.28
2023-03-08T06:04:30.617Z,99688.41
2023-03-08T06:06:58.869Z,99693.31
2023-03-08T06:09:28.644Z,99693.59
2023-03-08T06:11:57.052Z,99692.47
2023-03-08T06:14:25.479Z,99693.63
2023-03-08T06:16:53.867Z,99696.28
2023-03-08T06:19:22.310Z,99693.41
2023-03-08T06:21:50.601Z,99693.84
2023-03-08T06:24:18.961Z,99692.88
2023-03-08T06:26:48.666Z,99696.09
2023-03-08T06:29:17.027Z,99701.69
2023-03-08T06:31:45.331Z,99696.06
2023-03-08T06:34:14.069Z,99697.00
2023-03-08T06:36:42.335Z,99708.66
2023-03-08T06:39:11.258Z,99714.41
2023-03-08T06:41:39.560Z,99712.84
2023-03-08T06:44:09.338Z,99712.16
2023-03-08T06:46:37.731Z,99722.78
2023-03-08T06:49:11.823Z,99720.31
2023-03-08T06:51:40.241Z,99722.94
2023-03-08T06:54:08.531Z,99721.53
2023-03-08T06:56:36.872Z,99720.19
2023-03-08T06:59:05.228Z,99725.00
2023-03-08T07:01:34.938Z,99729.47
2023-03-08T07:04:03.368Z,99730.06
2023-03-08T07:06:31.683Z,99730.16
2023-03-08T07:08:59.968Z,99735.28
2023-03-08T07:11:29.678Z,99721.75
2023-03-08T07:13:59.299Z,99739.28
2023-03-08T07:16:27.926Z,99728.91
2023-03-08T07:18:57.971Z,99734.00
2023-03-08T07:21:26.406Z,99731.84
2023-03-08T07:23:54.745Z,99736.22
2023-03-08T07:26:23.087Z,99736.44
2023-03-08T07:28:51.651Z,99733.09
2023-03-08T07:31:36.363Z,99742.22
2023-03-08T07:34:06.220Z,99747.59
2023-03-08T07:36:37.047Z,99754.91
2023-03-08T07:39:05.494Z,99753.56
2023-03-08T07:41:34.844Z,99757.00
2023-03-08T07:44:03.877Z,99754.44
2023-03-08T07:46:35.163Z,99753.69
2023-03-08T07:49:03.495Z,99757.59
2023-03-08T07:51:33.259Z,99747.09
2023-03-08T07:54:02.147Z,99745.84
2023-03-08T07:56:31.030Z,99743.97
2023-03-08T07:58:59.363Z,99737.13
2023-03-08T08:01:27.695Z,99734.88
2023-03-08T08:03:56.117Z,99745.88
2023-03-08T08:06:24.401Z,99736.88
2023-03-08T08:08:54.132Z,99747.72
2023-03-08T08:11:22.624Z,99740.19
2023-03-08T08:13:51.096Z,99740.16
2023-03-08T08:16:19.427Z,99729.53
2023-03-08T08:18:48.037Z,99719.69
2023-03-08T08:21:17.346Z,99730.72
2023-03-08T08:23:46.008Z,99725.00
2023-03-08T08:26:17.588Z,99735.44
2023-03-08T08:28:47.507Z,99733.81
2023-03-08T08:31:17.713Z,99727.56
2023-03-08T08:33:56.468Z,99739.66
2023-03-08T08:36:25.290Z,99743.38
2023-03-08T08:38:53.876Z,99731.72
2023-03-08T08:41:24.422Z,99732.13
2023-03-08T08:43:52.916Z,99731.13
2023-03-08T08:46:21.350Z,99729.25
2023-03-08T08:48:49.670Z,99736.75
2023-03-08T08:51:18.399Z,99721.72
2023-03-08T08:53:46.723Z,99726.81
2023-03-08T08:56:26.045Z,99724.28
2023-03-08T08:58:56.575Z,99728.03
2023-03-08T09:01:26.654Z,99723.56
2023-03-08T09:03:55.483Z,99723.38
2023-03-08T09:06:25.169Z,99723.88
2023-03-08T09:08:55.022Z,99736.81
2023-03-08T09:11:24.352Z,99725.66
2023-03-08T09:13:53.267Z,99725.09
2023-03-08T09:16:35.527Z,99725.09
2023-03-08T09:19:05.807Z,99732.44
2023-03-08T09:21:34.969Z,99731.63
2023-03-08T09:24:05.282Z,99721.84
2023-03-08T09:26:34.996Z,99722.38
2023-03-08T09:29:05.529Z,99728.16
2023-03-08T09:31:38.378Z,99726.97
2023-03-08T09:34:09.544Z,99723.66
2023-03-08T09:36:39.755Z,99730.19
2023-03-08T09:39:10.043Z,99724.38
2023-03-08T09:41:54.338Z,99721.47
2023-03-08T09:44:49.864Z,99722.81
2023-03-08T09:47:29.813Z,99719.47
2023-03-08T09:50:10.142Z,99721.69
2023-03-08T09:52:41.789Z,99724.53
2023-03-08T09:55:26.333Z,99724.78
2023-03-08T09:57:57.561Z,99720.97
2023-03-08T10:00:31.694Z,99710.66
2023-03-08T10:03:23.876Z,99715.38
2023-03-08T10:05:58.631Z,99719.53
2023-03-08T10:08:31.964Z,99708.03
2023-03-08T10:11:01.950Z,99712.31
2023-03-08T10:13:36.219Z,99706.38
2023-03-08T10:16:14.292Z,99703.59
2023-03-08T10:18:48.423Z,99707.66
2023-03-08T10:21:19.490Z,99717.00
2023-03-08T10:23:49.816Z,99703.88
2023-03-08T10:26:18.924Z,99703.44
2023-03-08T10:28:48.208Z,99691.75
2023-03-08T10:31:24.369Z,99694.78
2023-03-08T10:34:01.885Z,99688.72
2023-03-08T10:36:30.346Z,99688.72
2023-03-08T10:39:07.596Z,99679.03
2023-03-08T10:41:43.608Z,99690.84
2023-03-08T10:44:17.356Z,99679.66
2023-03-08T10:46:50.810Z,99678.81
2023-03-08T10:49:26.813Z,99674.03
2023-03-08T10:52:01.027Z,99677.16
2023-03-08T10:54:30.334Z,99675.81
2023-03-08T10:57:00.733Z,99675.03
2023-03-08T10:59:33.531Z,99668.66
2023-03-08T11:02:04.949Z,99663.69
2023-03-08T11:04:34.714Z,99661.50
2023-03-08T11:07:13.031Z,99658.78
2023-03-08T11:09:41.522Z,99664.44
2023-03-08T11:12:24.017Z,99657.56
2023-03-08T11:14:55.750Z,99658.88
2023-03-08T11:17:29.798Z,99659.44
2023-03-08T11:20:11.438Z,99652.09
2023-03-08T11:23:00.631Z,99659.00
2023-03-08T11:25:37.751Z,99653.75
2023-03-08T11:28:25.219Z,99652.25
2023-03-08T11:31:10.494Z,99651.63
2023-03-08T11:34:09.048Z,99647.50
2023-03-08T11:36:47.849Z,99653.28
2023-03-08T11:39:23.905Z,99644.13
2023-03-08T11:41:59.533Z,99655.28
2023-03-08T11:45:01.413Z,99640.25
2023-03-08T11:48:09.346Z,99652.09
2023-03-08T11:50:42.993Z,99656.47
2023-03-08T11:53:19.663Z,99651.06
2023-03-08T11:56:00.313Z,99642.00
2023-03-08T11:58:34.858Z,99652.22
2023-03-08T12:01:04.833Z,99644.66
2023-03-08T12:03:38.562Z,99650.72
2023-03-08T12:06:26.574Z,99645.84
2023-03-08T12:09:02.760Z,99644.84
2023-03-08T12:11:34.271Z,99648.34
2023-03-08T12:14:07.675Z,99645.97
2023-03-08T12:16:48.095Z,99646.75
2023-03-08T12:19:26.357Z,99648.75
2023-03-08T12:22:03.873Z,99632.47
2023-03-08T12:24:46.308Z,99644.72
2023-03-08T12:27:20.688Z,99639.44
2023-03-08T12:29:54.533Z,99646.53
2023-03-08T12:32:24.245Z,99641.22
2023-03-08T12:35:04.343Z,99643.78
2023-03-08T12:37:33.370Z,99645.03
2023-03-08T12:40:08.085Z,99645.50
2023-03-08T12:42:39.154Z,99646.03
2023-03-08T12:45:10.178Z,99637.81
2023-03-08T12:47:38.618Z,99646.94
2023-03-08T12:50:18.679Z,99650.56
2023-03-08T12:52:47.144Z,99639.41
2023-03-08T12:55:23.427Z,99640.81
2023-03-08T12:57:54.906Z,99644.84
2023-03-08T13:00:29.832Z,99649.56
2023-03-08T13:03:06.342Z,99645.38
2023-03-08T13:05:37.276Z,99641.63
2023-03-08T13:08:25.493Z,99642.75
2023-03-08T13:11:07.064Z,99645.22
2023-03-08T13:13:49.633Z,99656.31
2023-03-08T13:16:34.215Z,99651.09
2023-03-08T13:19:09.164Z,99655.31
2023-03-08T13:21:42.931Z,99639.19
2023-03-08T13:24:17.612Z,99649.91
2023-03-08T13:26:59.267Z,99649.47
2023-03-08T13:29:31.808Z,99648.00
2023-03-08T13:32:06.255Z,99644.06
2023-03-08T13:34:36.524Z,99651.03
2023-03-08T13:37:05.230Z,99648.69
2023-03-08T13:39:33.963Z,99644.31
2023-03-08T13:42:12.977Z,99645.81
2023-03-08T13:44:41.346Z,99641.88
2023-03-08T13:47:22.654Z,99645.75
2023-03-08T13:49:52.391Z,99645.84
2023-03-08T13:52:23.716Z,99649.63
2023-03-08T13:54:55.168Z,99641.59
2023-03-08T13:57:27.852Z,99641.13
2023-03-08T13:59:58.120Z,99641.13
2023-03-08T14:02:28.230Z,99640.81
2023-03-08T14:04:57.632Z,99649.50
2023-03-08T14:07:28.110Z,99646.00
2023-03-08T14:09:56.854Z,99642.47
2023-03-08T14:12:30.859Z,99639.91
2023-03-08T14:15:01.644Z,99632.13
2023-03-08T14:17:32.613Z,99631.19
2023-03-08T14:20:05.228Z,99645.41
2023-03-08T14:22:40.025Z,99651.13
2023-03-08T14:25:23.374Z,99645.56
2023-03-08T14:27:53.379Z,99645.19
2023-03-08T14:30:24.693Z,99646.22
2023-03-08T14:33:03.178Z,99636.31
2023-03-08T14:35:34.844Z,99639.19
2023-03-08T14:38:04.062Z,99640.06
2023-03-08T14:40:35.598Z,99636.34
2023-03-08T14:43:07.878Z,99638.59
2023-03-08T14:45:40.188Z,99643.50
2023-03-08T14:48:25.190Z,99640.13
2023-03-08T14:50:56.143Z,99642.75
2023-03-08T14:53:29.300Z,99641.75
2023-03-08T14:55:59.013Z,99648.84
2023-03-08T14:58:31.117Z,99654.81
2023-03-08T15:01:02.227Z,99641.56
2023-03-08T15:03:32.538Z,99648.28
2023-03-08T15:06:06.357Z,99652.72
2023-03-08T15:08:34.764Z,99648.69
2023-03-08T15:11:03.200Z,99648.06
2023-03-08T15:13:32.852Z,99642.97
2023-03-08T15:16:01.218Z,99636.16
2023-03-08T15:18:29.585Z,99640.03
2023-03-08T15:20:58.619Z,99636.00
2023-03-08T15:23:29.492Z,99634.66
2023-03-08T15:25:59.412Z,99645.06
2023-03-08T15:28:27.897Z,99633.44
2023-03-08T15:30:57.770Z,99633.53
2023-03-08T15:33:26.327Z,99631.00
2023-03-08T15:35:54.778Z,99631.28
2023-03-08T15:38:24.839Z,99632.59
2023-03-08T15:40:56.241Z,99632.88
2023-03-08T15:43:27.086Z,99640.66
2023-03-08T15:45:55.347Z,99634.25
2023-03-08T15:48:25.089Z,99648.88
2023-03-08T15:50:53.367Z,99645.97
2023-03-08T15:53:34.524Z,99648.56
2023-03-08T15:56:03.810Z,99656.03
2023-03-08T15:58:32.168Z,99666.50
2023-03-08T16:01:00.462Z,99655.78
2023-03-08T16:03:31.451Z,99661.94
2023-03-08T16:06:00.183Z,99659.13
2023-03-08T16:08:29.090Z,99655.38
2023-03-08T16:11:00.340Z,99661.53
2023-03-08T16:13:28.619Z,99654.81
2023-03-08T16:16:00.036Z,99662.84
2023-03-08T16:18:30.712Z,99674.19
2023-03-08T16:20:59.626Z,99668.50
2023-03-08T16:23:28.477Z,99665.03
2023-03-08T16:26:14.232Z,99671.47
2023-03-08T16:28:45.074Z,99671.97
2023-03-08T16:31:14.111Z,99677.31
2023-03-08T16:33:43.900Z,99670.50
2023-03-08T16:36:12.819Z,99674.31
2023-03-08T16:38:41.532Z,99674.00
2023-03-08T16:41:14.306Z,99677.00
2023-03-08T16:43:48.039Z,99678.25
2023-03-08T16:46:18.908Z,99683.75
2023-03-08T16:48:50.079Z,99687.69
2023-03-08T16:51:20.517Z,99693.19
2023-03-08T16:53:49.460Z,99697.59
2023-03-08T16:56:22.699Z,99698.41
2023-03-08T16:58:51.227Z,99697.44
2023-03-08T17:01:20.931Z,99706.69
2023-03-08T17:03:51.070Z,99706.75
2023-03-08T17:06:23.392Z,99709.53
2023-03-08T17:08:52.148Z,99713.25
2023-03-08T17:11:22.921Z,99705.34
2023-03-08T17:13:52.888Z,99709.59
2023-03-08T17:16:22.831Z,99709.19
2023-03-08T17:18:53.427Z,99711.03
2023-03-08T17:21:24.511Z,99716.00
2023-03-08T17:23:56.490Z,99718.03
2023-03-08T17:26:24.996Z,99717.47
2023-03-08T17:28:54.425Z,99728.25
2023-03-08T17:31:24.753Z,99732.13
2023-03-08T17:33:54.742Z,99728.50
2023-03-08T17:36:23.313Z,99736.25
2023-03-08T17:38:54.311Z,99736.13
2023-03-08T17:41:23.964Z,99736.91
2023-03-08T17:43:55.290Z,99741.34
2023-03-08T17:46:28.548Z,99740.81
2023-03-08T17:48:58.513Z,99742.75
2023-03-08T17:51:30.254Z,99741.41
2023-03-08T17:54:01.188Z,99739.38
2023-03-08T17:56:32.030Z,99747.97
2023-03-08T17:59:02.897Z,99750.03
2023-03-08T18:01:32.479Z,99752.28
2023-03-08T18:04:02.466Z,99747.91
2023-03-08T18:06:33.368Z,99750.09
2023-03-08T18:09:03.720Z,99753.38
2023-03-08T18:11:37.482Z,99743.97
2023-03-08T18:14:06.104Z,99748.28
2023-03-08T18:16:35.380Z,99751.84
2023-03-08T18:19:06.592Z,99751.41
2023-03-08T18:21:36.413Z,99763.63
2023-03-08T18:24:05.418Z,99756.94
2023-03-08T18:26:33.908Z,99748.78
2023-03-08T18:29:02.205Z,99762.16
2023-03-08T18:31:32.372Z,99758.97
2023-03-08T18:34:00.764Z,99765.78
2023-03-08T18:36:30.521Z,99766.69
2023-03-08T18:38:58.842Z,99764.47
2023-03-08T18:41:29.651Z,99764.75
2023-03-08T18:43:59.908Z,99767.31
2023-03-08T18:46:30.134Z,99767.66
2023-03-08T18:49:01.410Z,99778.09
2023-03-08T18:51:31.601Z,99779.41
2023-03-08T18:54:00.401Z,99772.47
2023-03-08T18:56:29.702Z,99785.41
2023-03-08T18:59:01.196Z,99780.69
2023-03-08T19:01:30.572Z,99784.78
2023-03-08T19:04:00.818Z,99796.63
2023-03-08T19:06:30.572Z,99792.53
2023-03-08T19:08:58.877Z,99798.69
2023-03-08T19:11:29.212Z,99803.53
2023-03-08T19:13:57.625Z,99797.09
2023-03-08T19:16:27.937Z,99796.44
2023-03-08T19:18:58.358Z,99805.09
2023-03-08T19:21:28.480Z,99804.47
2023-03-08T19:23:59.026Z,99807.81
2023-03-08T19:26:37.032Z,99801.19
2023-03-08T19:29:08.697Z,99805.13
2023-03-08T19:31:39.025Z,99807.34
2023-03-08T19:34:07.685Z,99804.34
2023-03-08T19:36:36.732Z,99806.06
2023-03-08T19:39:10.334Z,99806.53
2023-03-08T19:41:38.718Z,99803.84
2023-03-08T19:44:07.951Z,99811.84
2023-03-08T19:46:37.073Z,99801.91
2023-03-08T19:49:08.677Z,99805.22
2023-03-08T19:51:37.728Z,99799.25
2023-03-08T19:54:08.178Z,99798.13
2023-03-08T19:56:37.238Z,99799.66
2023-03-08T19:59:05.697Z,99799.19
2023-03-08T20:01:33.974Z,99791.44
2023-03-08T20:04:02.305Z,99799.97
2023-03-08T20:06:32.772Z,99800.69
2023-03-08T20:09:02.536Z,99795.78
2023-03-08T20:11:32.831Z,99797.41
2023-03-08T20:14:01.431Z,99787.63
2023-03-08T20:16:30.510Z,99796.41
2023-03-08T20:18:58.967Z,99802.22
2023-03-08T20:21:29.877Z,99807.31
2023-03-08T20:23:59.706Z,99798.69
2023-03-08T20:26:30.047Z,99811.25
2023-03-08T20:29:21.508Z,99802.69
2023-03-08T20:31:57.632Z,99804.91
2023-03-08T20:34:27.249Z,99800.53
2023-03-08T20:36:55.571Z,99798.81
2023-03-08T20:39:23.878Z,99805.72
2023-03-08T20:41:53.873Z,99798.66
2023-03-08T20:44:23.557Z,99797.25
2023-03-08T20:46:51.958Z,99805.44
2023-03-08T20:49:20.292Z,99805.50
2023-03-08T20:51:49.320Z,99799.03
2023-03-08T20:54:17.977Z,99793.38
2023-03-08T20:56:46.330Z,99794.34
2023-03-08T20:59:15.837Z,99795.13
2023-03-08T21:01:45.846Z,99805.06
2023-03-08T21:04:14.115Z,99790.44
2023-03-08T21:06:42.442Z,99790.28
2023-03-08T21:09:10.735Z,99810.75
2023-03-08T21:11:39.163Z,99794.06
2023-03-08T21:14:08.221Z,99797.31
2023-03-08T21:16:36.748Z,99792.28
2023-03-08T21:19:07.236Z,99784.91
2023-03-08T21:21:37.716Z,99788.25
2023-03-08T21:24:08.130Z,99786.38
2023-03-08T21:26:36.723Z,99787.59
2023-03-08T21:29:06.685Z,99783.38
2023-03-08T21:31:37.079Z,99792.50
2023-03-08T21:34:08.138Z,99784.63
2023-03-08T21:36:38.557Z,99785.25
2023-03-08T21:39:08.219Z,99788.38
2023-03-08T21:41:39.241Z,99787.56
2023-03-08T21:44:09.545Z,99784.13
2023-03-08T21:46:38.429Z,99782.75
2023-03-08T21:49:10.706Z,99782.13
2023-03-08T21:51:41.826Z,99787.34
2023-03-08T21:54:10.304Z,99780.56
2023-03-08T21:56:38.968Z,99780.41
2023-03-08T21:59:07.830Z,99783.38
2023-03-08T22:01:37.192Z,99788.28
2023-03-08T22:04:06.432Z,99795.19
2023-03-08T22:06:36.215Z,99784.34
2023-03-08T22:09:04.593Z,99783.84
2023-03-08T22:11:33.561Z,99779.44
2023-03-08T22:14:02.352Z,99779.28
2023-03-08T22:16:33.847Z,99786.03
2023-03-08T22:19:03.481Z,99775.97
2023-03-08T22:21:32.147Z,99781.00
2023-03-08T22:24:03.411Z,99782.13
2023-03-08T22:26:32.395Z,99776.63
2023-03-08T22:29:01.217Z,99776.47
2023-03-08T22:31:31.289Z,99771.13
2023-03-08T22:34:00.508Z,99766.53
2023-03-08T22:36:28.965Z,99764.63
2023-03-08T22:38:57.500Z,99766.66
2023-03-08T22:41:28.993Z,99752.66
2023-03-08T22:43:57.439Z,99758.50
2023-03-08T22:46:28.011Z,99760.22
2023-03-08T22:48:58.286Z,99746.22
2023-03-08T22:51:28.625Z,99743.09
2023-03-08T22:53:59.162Z,99737.72
2023-03-08T22:56:30.924Z,99734.28
2023-03-08T22:58:59.779Z,99729.19
2023-03-08T23:01:30.180Z,99725.88
2023-03-08T23:03:59.906Z,99726.38
2023-03-08T23:06:30.135Z,99727.47
2023-03-08T23:08:59.880Z,99729.19
2023-03-08T23:11:30.516Z,99717.84
2023-03-08T23:13:58.912Z,99715.97
2023-03-08T23:16:27.577Z,99719.75
2023-03-08T23:18:56.370Z,99718.47
2023-03-08T23:21:26.700Z,99727.16
2023-03-08T23:23:55.178Z,99730.31
2023-03-08T23:26:26.930Z,99739.91
2023-03-08T23:28:57.981Z,99730.97
2023-03-08T23:31:28.670Z,99731.75
2023-03-08T23:33:58.360Z,99727.84
2023-03-08T23:36:27.581Z,99720.72
2023-03-08T23:38:56.472Z,99723.56
2023-03-08T23:41:25.131Z,99719.31
2023-03-08T23:43:57.925Z,99717.00
2023-03-08T23:46:27.086Z,99725.00
2023-03-08T23:48:57.475Z,99717.41
2023-03-08T23:51:27.366Z,99715.22
2023-03-08T23:53:57.726Z,99709.41
2023-03-08T23:56:27.695Z,99701.34
2023-03-08T23:58:58.781Z,99703.06
